Llantrisant, United Kingdom
Current Conditions -  °F | °C
As of 5:20 AM on Monday 20 Oct 2014 (Local Time) from EGFF Reporting Station
Overcast Overcast  
Wind Chill: 13°   Ceiling: 1400
Heat Index: 13°   Visibility: 6mi
Dew Point: 12°   Wind: 14mph
Humidity: 94%   Direction: 270°W
Pressure: 30"   Gusts: NA
Location:  51.54°N, 3.37°W
Report Text: EGFF 200420Z AUTO 27012KT 9999 BKN014 BKN033 OVC048 13/12 Q1016 RERA REDZ
Loading
Personal Weather Stations






























Interactive Weather Map
Tropical Storm Tracking
New forecast layout! Learn more

10-Day Weather Forecast

Advertisements
Track Severe Weather on mobile